createdAt,value
2023-01-06T00:01:26.938Z,10.58
2023-01-06T00:03:59.981Z,9.70
2023-01-06T00:06:31.176Z,9.06
2023-01-06T00:09:05.078Z,9.27
2023-01-06T00:11:33.819Z,11.06
2023-01-06T00:14:02.033Z,11.69
2023-01-06T00:16:30.653Z,10.68
2023-01-06T00:19:00.295Z,9.81
2023-01-06T00:21:29.589Z,9.17
2023-01-06T00:23:57.689Z,9.64
2023-01-06T00:26:26.466Z,11.30
2023-01-06T00:28:56.225Z,11.04
2023-01-06T00:31:24.398Z,10.05
2023-01-06T00:33:52.536Z,9.33
2023-01-06T00:36:21.929Z,9.50
2023-01-06T00:38:51.362Z,11.17
2023-01-06T00:41:38.603Z,11.39
2023-01-06T00:44:07.446Z,10.27
2023-01-06T00:46:35.669Z,9.51
2023-01-06T00:49:06.555Z,8.97
2023-01-06T00:51:39.453Z,9.38
2023-01-06T00:54:13.701Z,11.19
2023-01-06T00:56:47.668Z,11.36
2023-01-06T00:59:19.327Z,10.30
2023-01-06T01:01:49.586Z,9.47
2023-01-06T01:04:17.889Z,8.99
2023-01-06T01:06:47.834Z,10.11
2023-01-06T01:09:22.305Z,11.63
2023-01-06T01:12:10.103Z,11.05
2023-01-06T01:14:47.759Z,9.92
2023-01-06T01:17:29.429Z,9.21
2023-01-06T01:19:59.264Z,9.89
2023-01-06T01:22:30.037Z,11.43
2023-01-06T01:24:58.395Z,11.00
2023-01-06T01:27:26.360Z,9.98
2023-01-06T01:29:54.335Z,9.23
2023-01-06T01:32:23.010Z,9.20
2023-01-06T01:34:51.040Z,10.83
2023-01-06T01:37:18.956Z,11.69
2023-01-06T01:39:47.529Z,10.72
2023-01-06T01:42:21.043Z,9.77
2023-01-06T01:52:33.707Z,11.44
2023-01-06T01:55:02.995Z,10.38
2023-01-06T01:58:11.106Z,9.57
2023-01-06T02:00:40.239Z,9.10
2023-01-06T02:03:08.579Z,10.50
2023-01-06T02:05:40.264Z,11.64
2023-01-06T02:08:37.665Z,10.79
2023-01-06T02:11:06.821Z,9.71
2023-01-06T02:13:37.728Z,9.08
2023-01-06T02:16:13.928Z,9.05
2023-01-06T02:19:13.197Z,10.78
2023-01-06T02:22:19.263Z,11.77
2023-01-06T02:25:17.764Z,10.47
2023-01-06T02:28:01.626Z,9.49
2023-01-06T02:30:51.409Z,8.92
2023-01-06T02:33:28.296Z,9.89
2023-01-06T02:36:12.415Z,11.68
2023-01-06T02:38:58.360Z,11.90
2023-01-06T02:41:33.691Z,10.63
2023-01-06T02:44:04.764Z,9.75
2023-01-06T02:47:03.564Z,9.16
2023-01-06T02:49:44.632Z,9.55
2023-01-06T02:52:29.089Z,11.49
2023-01-06T02:55:03.324Z,11.81
2023-01-06T02:57:57.929Z,10.69
2023-01-06T03:00:38.244Z,9.73
2023-01-06T03:03:13.499Z,9.13
2023-01-06T03:05:44.413Z,9.36
2023-01-06T03:08:18.623Z,11.14
2023-01-06T03:10:47.774Z,11.72
2023-01-06T03:13:45.278Z,10.65
2023-01-06T03:16:14.058Z,9.59
2023-01-06T03:18:44.048Z,8.97
2023-01-06T03:21:16.903Z,9.31
2023-01-06T03:23:45.797Z,11.10
2023-01-06T03:26:14.211Z,11.40
2023-01-06T03:28:42.243Z,10.30
2023-01-06T03:31:37.826Z,9.39
2023-01-06T03:34:58.121Z,9.06
2023-01-06T03:37:41.904Z,11.23
2023-01-06T03:40:18.098Z,11.56
2023-01-06T03:43:10.192Z,10.36
2023-01-06T03:46:27.538Z,9.36
2023-01-06T03:49:04.810Z,9.67
2023-01-06T03:51:55.389Z,11.47
2023-01-06T03:54:23.593Z,11.57
2023-01-06T03:57:02.205Z,10.44
2023-01-06T03:59:34.124Z,9.53
2023-01-06T04:02:03.148Z,9.40
2023-01-06T04:04:31.702Z,10.99
2023-01-06T04:06:59.599Z,11.93
2023-01-06T04:09:27.751Z,10.95
2023-01-06T04:12:14.378Z,9.97
2023-01-06T04:14:42.477Z,9.21
2023-01-06T04:17:12.879Z,9.33
2023-01-06T04:19:41.560Z,11.08
2023-01-06T04:22:09.449Z,11.74
2023-01-06T04:24:37.422Z,10.69
2023-01-06T04:27:05.393Z,9.77
2023-01-06T04:29:33.482Z,9.12
2023-01-06T04:32:01.397Z,9.27
2023-01-06T04:34:29.519Z,10.93
2023-01-06T04:36:57.463Z,11.81
2023-01-06T04:39:25.400Z,10.82
2023-01-06T04:41:53.318Z,9.85
2023-01-06T04:44:21.249Z,9.17
2023-01-06T04:46:49.143Z,9.20
2023-01-06T04:49:17.195Z,10.87
2023-01-06T04:51:45.163Z,11.79
2023-01-06T04:54:13.356Z,10.83
2023-01-06T04:56:41.326Z,9.89
2023-01-06T04:59:09.268Z,9.21
2023-01-06T05:01:38.738Z,9.06
2023-01-06T05:04:07.586Z,10.59
2023-01-06T05:06:36.075Z,11.61
2023-01-06T05:09:04.245Z,10.71
2023-01-06T05:11:32.285Z,9.78
2023-01-06T05:14:00.274Z,9.13
2023-01-06T05:16:35.175Z,9.06
2023-01-06T05:19:03.227Z,10.74
2023-01-06T05:21:32.901Z,11.71
2023-01-06T05:24:00.987Z,10.77
2023-01-06T05:26:29.294Z,9.83
2023-01-06T05:28:57.321Z,9.14
2023-01-06T05:31:25.401Z,9.20
2023-01-06T05:33:53.372Z,10.86
2023-01-06T05:36:21.340Z,11.74
2023-01-06T05:38:54.534Z,10.75
2023-01-06T05:41:22.702Z,9.78
2023-01-06T05:43:50.839Z,9.12
2023-01-06T05:46:19.052Z,9.12
2023-01-06T05:48:46.983Z,10.78
2023-01-06T05:51:16.777Z,11.65
2023-01-06T05:53:49.720Z,10.69
2023-01-06T05:56:21.338Z,9.73
2023-01-06T05:58:52.374Z,9.03
2023-01-06T06:01:29.662Z,9.00
2023-01-06T06:03:57.994Z,10.77
2023-01-06T06:06:28.472Z,11.47
2023-01-06T06:08:57.627Z,10.46
2023-01-06T06:11:25.843Z,9.56
2023-01-06T06:13:56.386Z,8.92
2023-01-06T06:16:27.488Z,8.81
2023-01-06T06:18:58.738Z,10.48
2023-01-06T06:21:29.710Z,11.05
2023-01-06T06:23:59.517Z,10.05
2023-01-06T06:26:45.988Z,9.11
2023-01-06T06:29:14.273Z,8.53
2023-01-06T06:31:45.013Z,8.90
2023-01-06T06:34:13.749Z,10.74
2023-01-06T06:36:41.807Z,11.11
2023-01-06T06:39:09.771Z,10.03
2023-01-06T06:41:37.781Z,9.18
2023-01-06T06:44:06.164Z,8.58
2023-01-06T06:46:34.230Z,8.76
2023-01-06T06:49:05.414Z,10.57
2023-01-06T06:51:33.396Z,11.09
2023-01-06T06:54:02.600Z,10.05
2023-01-06T06:56:30.708Z,9.18
2023-01-06T06:58:58.647Z,8.56
2023-01-06T07:01:28.141Z,8.76
2023-01-06T07:03:56.228Z,10.54
2023-01-06T07:06:27.219Z,10.85
2023-01-06T07:08:56.197Z,9.77
2023-01-06T07:11:24.917Z,8.94
2023-01-06T07:13:53.031Z,8.74
2023-01-06T07:16:23.378Z,10.31
2023-01-06T07:18:51.362Z,11.31
2023-01-06T07:21:19.452Z,10.35
2023-01-06T07:23:47.583Z,9.40
2023-01-06T07:26:15.832Z,8.75
2023-01-06T07:28:44.096Z,8.29
2023-01-06T07:31:12.245Z,9.25
2023-01-06T07:33:40.192Z,11.03
2023-01-06T07:36:08.959Z,10.91
2023-01-06T07:38:36.966Z,9.85
2023-01-06T07:41:05.027Z,9.09
2023-01-06T07:43:35.828Z,8.55
2023-01-06T07:46:03.987Z,8.14
2023-01-06T07:48:32.137Z,9.04
2023-01-06T07:51:00.223Z,10.83
2023-01-06T07:53:28.575Z,10.74
2023-01-06T07:55:56.653Z,9.69
2023-01-06T07:58:24.663Z,8.94
2023-01-06T08:00:52.660Z,8.43
2023-01-06T08:03:21.001Z,8.50
2023-01-06T08:05:49.037Z,10.23
2023-01-06T08:08:17.582Z,10.91
2023-01-06T08:10:45.722Z,9.97
2023-01-06T08:13:13.730Z,9.16
2023-01-06T08:15:41.897Z,8.60
2023-01-06T08:18:09.845Z,8.60
2023-01-06T08:20:37.853Z,10.33
2023-01-06T08:23:05.776Z,11.28
2023-01-06T08:25:33.952Z,10.35
2023-01-06T08:28:02.153Z,9.47
2023-01-06T08:30:30.280Z,8.86
2023-01-06T08:33:00.100Z,8.38
2023-01-06T08:35:28.497Z,8.02
2023-01-06T08:37:56.740Z,8.39
2023-01-06T08:40:24.888Z,10.32
2023-01-06T08:42:52.972Z,10.97
2023-01-06T08:45:20.953Z,10.00
2023-01-06T08:47:49.058Z,9.23
2023-01-06T08:50:17.099Z,8.69
2023-01-06T08:52:45.222Z,8.30
2023-01-06T08:55:13.664Z,8.06
2023-01-06T08:57:41.724Z,9.28
2023-01-06T09:00:10.754Z,10.62
2023-01-06T09:02:39.189Z,9.94
2023-01-06T09:05:09.767Z,9.17
2023-01-06T09:07:57.301Z,8.56
2023-01-06T09:10:25.893Z,8.20
2023-01-06T09:12:54.151Z,8.34
2023-01-06T09:15:22.235Z,10.14
2023-01-06T09:17:52.958Z,10.68
2023-01-06T09:20:23.372Z,9.78
2023-01-06T09:22:52.790Z,9.06
2023-01-06T09:25:25.184Z,8.55
2023-01-06T09:27:57.391Z,8.16
2023-01-06T09:30:25.835Z,7.91
2023-01-06T09:32:56.123Z,8.89
2023-01-06T09:35:26.602Z,10.54
2023-01-06T09:37:55.624Z,10.10
2023-01-06T09:40:35.593Z,9.24
2023-01-06T09:44:01.602Z,8.59
2023-01-06T09:46:35.109Z,8.43
2023-01-06T09:49:43.319Z,10.20
2023-01-06T09:52:52.262Z,10.45
2023-01-06T09:55:47.105Z,9.32
2023-01-06T09:58:26.882Z,8.61
2023-01-06T10:01:18.953Z,8.60
2023-01-06T10:03:48.474Z,10.62
2023-01-06T10:06:25.172Z,11.21
2023-01-06T10:09:33.997Z,10.14
2023-01-06T10:12:02.000Z,9.11
2023-01-06T10:15:12.478Z,8.59
2023-01-06T10:17:58.928Z,8.07
2023-01-06T10:20:50.924Z,8.71
2023-01-06T10:23:37.709Z,10.56
2023-01-06T10:26:31.642Z,9.91
2023-01-06T10:29:20.663Z,8.98
2023-01-06T10:31:51.799Z,8.37
2023-01-06T10:34:25.456Z,8.00
2023-01-06T10:37:33.256Z,9.06
2023-01-06T10:46:40.803Z,8.58
2023-01-06T10:49:22.945Z,8.14
2023-01-06T10:52:05.325Z,9.62
2023-01-06T10:54:36.793Z,10.72
2023-01-06T10:57:15.233Z,9.82
2023-01-06T11:00:26.126Z,8.93
2023-01-06T11:03:32.788Z,8.22
2023-01-06T11:06:33.712Z,8.91
2023-01-06T11:09:56.546Z,10.64
2023-01-06T11:12:37.835Z,9.63
2023-01-06T11:15:32.584Z,8.79
2023-01-06T11:19:02.449Z,8.44
2023-01-06T11:21:47.540Z,10.52
2023-01-06T11:24:29.440Z,10.12
2023-01-06T11:27:09.182Z,9.12
2023-01-06T11:29:38.948Z,8.46
2023-01-06T11:32:24.539Z,8.81
2023-01-06T11:35:12.920Z,10.70
2023-01-06T11:38:04.590Z,10.21
2023-01-06T11:40:40.589Z,9.22
2023-01-06T11:43:23.598Z,8.72
2023-01-06T11:45:59.757Z,10.26
2023-01-06T11:48:45.996Z,11.07
2023-01-06T11:51:45.063Z,10.01
2023-01-06T11:54:46.474Z,9.10
2023-01-06T11:57:37.415Z,9.36
2023-01-06T12:00:31.683Z,11.32
2023-01-06T12:03:31.921Z,11.64
2023-01-06T12:06:13.861Z,10.32
2023-01-06T12:08:57.388Z,9.52
2023-01-06T12:11:51.458Z,9.57
2023-01-06T12:14:31.932Z,11.42
2023-01-06T12:17:53.161Z,11.12
2023-01-06T12:20:38.024Z,9.88
2023-01-06T12:23:40.282Z,9.16
2023-01-06T12:26:23.976Z,9.45
2023-01-06T12:29:01.393Z,11.44
2023-01-06T12:31:52.621Z,11.66
2023-01-06T12:34:36.883Z,10.42
2023-01-06T12:37:40.576Z,9.67
2023-01-06T12:40:37.115Z,11.11
2023-01-06T12:43:17.376Z,12.12
2023-01-06T12:46:06.063Z,10.92
2023-01-06T12:48:43.314Z,10.19
2023-01-06T12:51:20.079Z,11.57
2023-01-06T12:54:20.965Z,12.54
2023-01-06T12:57:10.852Z,11.24
2023-01-06T13:00:06.725Z,10.47
2023-01-06T13:02:53.047Z,12.03
2023-01-06T13:05:58.801Z,12.67
2023-01-06T13:09:06.289Z,11.20
2023-01-06T13:12:06.475Z,10.59
2023-01-06T13:14:46.763Z,12.40
2023-01-06T13:17:44.942Z,12.83
2023-01-06T13:20:36.098Z,11.36
2023-01-06T13:23:22.161Z,10.89
2023-01-06T13:26:29.049Z,12.49
2023-01-06T13:29:18.190Z,12.43
2023-01-06T13:32:30.323Z,11.07
2023-01-06T13:35:20.793Z,11.08
2023-01-06T13:38:22.945Z,12.81
2023-01-06T13:40:52.933Z,12.18
2023-01-06T13:43:28.470Z,10.98
2023-01-06T13:46:04.927Z,10.94
2023-01-06T13:48:40.387Z,12.53
2023-01-06T13:51:20.273Z,13.01
2023-01-06T13:53:50.399Z,11.67
2023-01-06T14:01:32.431Z,12.59
2023-01-06T14:04:33.214Z,11.62
2023-01-06T14:07:01.585Z,10.86
2023-01-06T14:09:34.622Z,12.26
2023-01-06T14:12:23.914Z,13.16
2023-01-06T14:15:31.680Z,11.95
2023-01-06T14:18:04.109Z,10.86
2023-01-06T14:20:38.439Z,11.96
2023-01-06T14:23:25.258Z,13.37
2023-01-06T14:25:56.644Z,12.67
2023-01-06T14:28:34.359Z,11.45
2023-01-06T14:31:39.070Z,11.16
2023-01-06T14:34:11.601Z,12.97
2023-01-06T14:36:42.642Z,13.45
2023-01-06T14:39:20.920Z,12.21
2023-01-06T14:42:20.475Z,11.26
2023-01-06T14:44:54.190Z,12.47
2023-01-06T14:47:48.207Z,13.36
2023-01-06T14:50:38.342Z,12.13
2023-01-06T14:53:23.545Z,11.15
2023-01-06T14:55:53.915Z,12.34
2023-01-06T14:58:31.174Z,13.63
2023-01-06T15:01:02.958Z,12.95
2023-01-06T15:03:32.149Z,11.74
2023-01-06T15:06:22.463Z,11.36
2023-01-06T15:08:50.855Z,12.96
2023-01-06T15:11:25.455Z,13.57
2023-01-06T15:13:54.158Z,12.37
2023-01-06T15:16:40.737Z,11.32
2023-01-06T15:19:13.961Z,11.76
2023-01-06T15:23:51.058Z,13.71
2023-01-06T15:26:30.337Z,12.54
2023-01-06T15:29:07.416Z,11.41
2023-01-06T15:31:41.950Z,11.94
2023-01-06T15:34:23.263Z,13.47
2023-01-06T15:36:53.794Z,13.33
2023-01-06T15:39:30.924Z,12.02
2023-01-06T15:41:59.771Z,11.54
2023-01-06T15:44:34.107Z,12.80
2023-01-06T15:47:11.608Z,13.82
2023-01-06T15:50:03.057Z,12.88
2023-01-06T15:52:47.359Z,11.62
2023-01-06T15:56:05.276Z,11.93
2023-01-06T15:58:39.714Z,13.63
2023-01-06T16:01:24.621Z,13.49
2023-01-06T16:04:00.934Z,12.15
2023-01-06T16:06:38.106Z,11.70
2023-01-06T16:09:35.948Z,12.99
2023-01-06T16:12:04.527Z,13.83
2023-01-06T16:14:40.408Z,12.74
2023-01-06T16:17:31.897Z,11.72
2023-01-06T16:20:22.739Z,12.58
2023-01-06T16:22:55.305Z,14.02
2023-01-06T16:25:29.334Z,13.67
2023-01-06T16:28:02.327Z,12.40
2023-01-06T16:30:36.693Z,12.01
2023-01-06T16:33:05.845Z,13.35
2023-01-06T16:35:34.914Z,14.21
2023-01-06T16:38:06.956Z,13.20
2023-01-06T16:43:23.978Z,12.57
2023-01-06T16:45:54.286Z,13.96
2023-01-06T16:48:22.522Z,14.37
2023-01-06T16:50:55.039Z,13.17
2023-01-06T16:53:23.902Z,12.23
2023-01-06T16:55:58.618Z,13.12
2023-01-06T16:58:33.558Z,14.52
2023-01-06T17:01:14.262Z,14.66
2023-01-06T17:03:44.215Z,13.27
2023-01-06T17:06:20.237Z,12.42
2023-01-06T17:09:33.743Z,13.44
2023-01-06T17:12:02.068Z,14.89
2023-01-06T17:14:31.309Z,14.25
2023-01-06T17:17:11.302Z,13.02
2023-01-06T17:19:39.987Z,12.96
2023-01-06T17:22:31.553Z,14.37
2023-01-06T17:25:31.633Z,14.92
2023-01-06T17:28:23.372Z,13.43
2023-01-06T17:30:52.723Z,13.19
2023-01-06T17:33:21.033Z,14.59
2023-01-06T17:35:55.518Z,15.23
2023-01-06T17:38:29.001Z,14.08
2023-01-06T17:40:57.633Z,13.35
2023-01-06T17:43:37.154Z,14.53
2023-01-06T17:46:22.967Z,15.65
2023-01-06T17:49:01.392Z,14.74
2023-01-06T17:51:29.647Z,13.50
2023-01-06T17:54:17.147Z,13.96
2023-01-06T17:56:45.936Z,15.52
2023-01-06T17:59:21.974Z,15.81
2023-01-06T18:01:53.173Z,14.47
2023-01-06T18:04:22.215Z,14.04
2023-01-06T18:07:15.364Z,15.40
2023-01-06T18:09:46.764Z,16.22
2023-01-06T18:12:20.248Z,15.07
2023-01-06T18:14:50.399Z,14.08
2023-01-06T18:17:49.115Z,15.04
2023-01-06T18:20:31.822Z,16.41
2023-01-06T18:23:16.466Z,15.49
2023-01-06T18:25:45.110Z,14.33
2023-01-06T18:28:26.567Z,15.20
2023-01-06T18:31:02.191Z,16.38
2023-01-06T18:33:35.618Z,15.45
2023-01-06T18:36:17.918Z,14.35
2023-01-06T18:38:50.165Z,15.28
2023-01-06T18:41:19.052Z,16.44
2023-01-06T18:43:50.740Z,15.84
2023-01-06T18:46:20.150Z,14.55
2023-01-06T18:48:55.196Z,14.78
2023-01-06T18:51:26.132Z,16.21
2023-01-06T18:53:54.787Z,16.09
2023-01-06T18:56:28.176Z,14.82
2023-01-06T18:58:58.910Z,14.75
2023-01-06T19:01:46.924Z,16.19
2023-01-06T19:04:37.975Z,16.46
2023-01-06T19:07:27.214Z,14.97
2023-01-06T19:09:57.476Z,14.56
2023-01-06T19:12:38.445Z,16.02
2023-01-06T19:15:30.310Z,16.58
2023-01-06T19:18:03.903Z,15.15
2023-01-06T19:20:41.277Z,14.65
2023-01-06T19:23:25.700Z,16.16
2023-01-06T19:26:05.743Z,16.68
2023-01-06T19:28:38.002Z,15.35
2023-01-06T19:31:12.763Z,14.77
2023-01-06T19:33:58.529Z,16.12
2023-01-06T19:36:47.296Z,16.59
2023-01-06T19:39:25.881Z,15.20
2023-01-06T19:42:12.122Z,14.82
2023-01-06T19:44:42.234Z,16.33
2023-01-06T19:47:26.665Z,16.57
2023-01-06T19:50:00.198Z,15.20
2023-01-06T19:52:35.593Z,14.70
2023-01-06T19:55:27.590Z,16.11
2023-01-06T19:58:08.239Z,16.30
2023-01-06T20:00:52.738Z,14.93
2023-01-06T20:03:43.297Z,14.76
2023-01-06T20:06:13.721Z,16.37
2023-01-06T20:08:54.553Z,16.31
2023-01-06T20:11:24.955Z,14.96
2023-01-06T20:13:54.742Z,14.61
2023-01-06T20:16:25.102Z,15.98
2023-01-06T20:18:54.707Z,16.70
2023-01-06T20:21:24.111Z,15.56
2023-01-06T20:23:53.374Z,14.71
2023-01-06T20:26:22.870Z,15.71
2023-01-06T20:28:52.327Z,16.80
2023-01-06T20:31:21.773Z,15.98
2023-01-06T20:33:50.763Z,14.85
2023-01-06T20:36:20.077Z,15.25
2023-01-06T20:38:53.907Z,16.55
2023-01-06T20:41:22.926Z,16.77
2023-01-06T20:43:51.970Z,15.55
2023-01-06T20:46:21.122Z,14.58
2023-01-06T20:48:52.830Z,15.32
2023-01-06T20:51:24.312Z,16.57
2023-01-06T20:53:53.358Z,16.02
2023-01-06T20:56:22.379Z,14.83
2023-01-06T20:58:53.696Z,14.55
2023-01-06T21:01:22.781Z,15.94
2023-01-06T21:03:51.784Z,16.42
2023-01-06T21:06:20.929Z,15.24
2023-01-06T21:08:49.660Z,14.36
2023-01-06T21:11:18.578Z,15.25
2023-01-06T21:13:49.612Z,16.56
2023-01-06T21:16:18.710Z,16.17
2023-01-06T21:18:47.524Z,14.93
2023-01-06T21:21:16.589Z,14.56
2023-01-06T21:23:47.829Z,15.89
2023-01-06T21:26:16.693Z,16.64
2023-01-06T21:28:45.872Z,15.56
2023-01-06T21:31:14.791Z,14.49
2023-01-06T21:33:43.522Z,15.00
2023-01-06T21:36:12.504Z,16.37
2023-01-06T21:38:41.210Z,16.14
2023-01-06T21:41:27.942Z,14.92
2023-01-06T21:43:56.496Z,14.58
2023-01-06T21:46:25.128Z,15.98
2023-01-06T21:48:53.529Z,16.31
2023-01-06T21:51:22.656Z,15.11
2023-01-06T21:53:53.349Z,14.23
2023-01-06T21:56:22.050Z,15.18
2023-01-06T21:58:50.533Z,16.32
2023-01-06T22:01:19.438Z,15.55
2023-01-06T22:03:48.112Z,14.39
2023-01-06T22:06:18.500Z,14.40
2023-01-06T22:08:48.801Z,15.86
2023-01-06T22:11:38.644Z,16.01
2023-01-06T22:14:07.969Z,14.63
2023-01-06T22:16:37.715Z,14.08
2023-01-06T22:19:06.655Z,15.34
2023-01-06T22:21:35.646Z,16.03
2023-01-06T22:24:05.289Z,14.94
2023-01-06T22:26:33.261Z,13.88
2023-01-06T22:29:01.323Z,14.10
2023-01-06T22:31:30.654Z,15.55
2023-01-06T22:33:58.802Z,15.36
2023-01-06T22:36:26.680Z,14.15
2023-01-06T22:38:55.219Z,13.40
2023-01-06T22:41:23.216Z,14.42
2023-01-06T22:43:51.456Z,15.66
2023-01-06T22:46:19.505Z,15.16
2023-01-06T22:48:47.563Z,13.93
2023-01-06T22:51:15.614Z,13.41
2023-01-06T22:53:43.676Z,14.68
2023-01-06T22:56:12.656Z,15.55
2023-01-06T22:58:41.678Z,14.51
2023-01-06T23:01:13.403Z,13.40
2023-01-06T23:03:41.679Z,13.62
2023-01-06T23:06:13.314Z,15.09
2023-01-06T23:08:58.482Z,15.47
2023-01-06T23:11:28.904Z,14.11
2023-01-06T23:13:58.351Z,13.20
2023-01-06T23:16:27.201Z,14.08
2023-01-06T23:18:56.759Z,15.52
2023-01-06T23:21:27.431Z,15.40
2023-01-06T23:23:56.869Z,14.09
2023-01-06T23:26:28.290Z,13.47
2023-01-06T23:28:57.780Z,14.76
2023-01-06T23:31:38.830Z,15.51
2023-01-06T23:34:15.280Z,14.31
2023-01-06T23:36:44.105Z,13.20
2023-01-06T23:39:14.822Z,13.59
2023-01-06T23:41:43.101Z,15.10
2023-01-06T23:44:19.039Z,15.49
2023-01-06T23:46:47.241Z,14.20
2023-01-06T23:49:17.150Z,13.14
2023-01-06T23:51:45.803Z,13.33
2023-01-06T23:54:14.281Z,14.89
2023-01-06T23:56:42.677Z,15.37
2023-01-06T23:59:12.462Z,14.13
